createdAt,value
2023-01-01T00:00:23.326Z,0.75
2023-01-01T00:02:51.127Z,0.76
2023-01-01T00:05:18.409Z,1.02
2023-01-01T00:07:45.783Z,1.08
2023-01-01T00:10:28.436Z,1.15
2023-01-01T00:12:57.552Z,1.11
2023-01-01T00:15:26.311Z,1.13
2023-01-01T00:17:54.285Z,0.97
2023-01-01T00:20:21.875Z,1.07
2023-01-01T00:22:57.029Z,1.03
2023-01-01T00:25:25.170Z,1.02
2023-01-01T00:27:52.912Z,0.42
2023-01-01T00:30:20.210Z,0.29
2023-01-01T00:32:54.657Z,0.35
2023-01-01T00:35:24.984Z,0.29
2023-01-01T00:37:52.967Z,0.38
2023-01-01T00:40:20.263Z,0.12
2023-01-01T00:42:47.910Z,0.23
2023-01-01T00:45:21.009Z,0.26
2023-01-01T00:47:52.211Z,0.30
2023-01-01T00:50:20.819Z,0.51
2023-01-01T00:52:49.301Z,0.57
2023-01-01T00:55:17.545Z,0.65
2023-01-01T00:57:44.799Z,0.69
2023-01-01T01:00:12.685Z,0.72
2023-01-01T01:02:40.524Z,0.61
2023-01-01T01:05:08.358Z,0.55
2023-01-01T01:07:36.856Z,0.57
2023-01-01T01:10:05.264Z,0.71
2023-01-01T01:12:34.423Z,0.68
2023-01-01T01:15:01.948Z,0.47
2023-01-01T01:17:31.315Z,0.39
2023-01-01T01:19:58.923Z,0.53
2023-01-01T01:22:28.879Z,0.43
2023-01-01T01:24:57.980Z,0.44
2023-01-01T01:27:27.071Z,0.34
2023-01-01T01:29:54.865Z,0.50
2023-01-01T01:32:22.451Z,0.37
2023-01-01T01:34:49.843Z,0.38
2023-01-01T01:37:17.124Z,0.22
2023-01-01T01:39:46.808Z,0.42
2023-01-01T01:42:19.452Z,0.19
2023-01-01T01:44:47.355Z,0.36
2023-01-01T01:47:29.839Z,0.35
2023-01-01T01:50:11.744Z,0.29
2023-01-01T01:52:47.909Z,0.21
2023-01-01T01:55:15.677Z,0.08
2023-01-01T01:57:43.311Z,0.15
2023-01-01T02:00:11.999Z,0.31
2023-01-01T02:02:50.951Z,0.24
2023-01-01T02:05:20.577Z,0.24
2023-01-01T02:07:49.963Z,0.34
2023-01-01T02:10:17.345Z,0.28
2023-01-01T02:12:44.778Z,0.32
2023-01-01T02:15:12.757Z,0.34
2023-01-01T02:18:03.517Z,0.30
2023-01-01T02:20:31.152Z,0.35
2023-01-01T02:23:16.165Z,0.25
2023-01-01T02:26:07.950Z,0.27
2023-01-01T02:28:51.557Z,-0.08
2023-01-01T02:31:26.389Z,0.05
2023-01-01T02:33:58.495Z,0.13
2023-01-01T02:36:28.016Z,-0.04
2023-01-01T02:38:58.262Z,0.16
2023-01-01T02:41:31.229Z,0.09
2023-01-01T02:46:32.097Z,0.09
2023-01-01T02:49:03.330Z,-0.06
2023-01-01T02:51:52.380Z,-0.12
2023-01-01T02:54:20.080Z,-0.07
2023-01-01T02:57:09.539Z,-0.07
2023-01-01T03:00:17.447Z,-0.32
2023-01-01T03:03:16.105Z,-0.41
2023-01-01T03:06:20.156Z,-0.25
2023-01-01T03:09:02.726Z,-0.35
2023-01-01T03:11:43.011Z,-0.23
2023-01-01T03:14:25.150Z,-0.27
2023-01-01T03:16:55.592Z,-0.36
2023-01-01T03:19:37.589Z,-0.32
2023-01-01T03:22:13.895Z,-0.20
2023-01-01T03:25:07.323Z,-0.28
2023-01-01T03:27:46.614Z,-0.28
2023-01-01T03:30:16.998Z,-0.25
2023-01-01T03:33:01.897Z,-0.24
2023-01-01T03:35:44.302Z,-0.24
2023-01-01T03:38:43.656Z,-0.27
2023-01-01T03:41:17.216Z,-0.26
2023-01-01T03:43:56.725Z,-0.33
2023-01-01T03:46:28.967Z,-0.41
2023-01-01T03:49:03.027Z,-0.19
2023-01-01T03:51:53.194Z,-0.29
2023-01-01T03:54:39.436Z,-0.71
2023-01-01T03:57:48.496Z,-0.73
2023-01-01T04:00:23.311Z,-0.74
2023-01-01T04:03:03.138Z,-0.64
2023-01-01T04:05:35.704Z,-0.54
2023-01-01T04:08:04.139Z,-0.46
2023-01-01T04:10:34.731Z,-0.50
2023-01-01T04:13:05.678Z,-0.52
2023-01-01T04:15:34.005Z,-0.58
2023-01-01T04:18:01.622Z,-0.59
2023-01-01T04:20:28.893Z,-0.64
2023-01-01T04:22:58.345Z,-0.57
2023-01-01T04:25:28.154Z,-0.46
2023-01-01T04:27:58.551Z,-0.37
2023-01-01T04:30:27.119Z,-0.32
2023-01-01T04:32:55.258Z,-0.42
2023-01-01T04:35:22.892Z,-0.47
2023-01-01T04:37:50.662Z,-0.44
2023-01-01T04:40:18.092Z,-0.47
2023-01-01T04:42:45.421Z,-0.62
2023-01-01T04:45:15.425Z,-0.57
2023-01-01T04:47:43.305Z,-0.54
2023-01-01T04:50:10.888Z,-0.68
2023-01-01T04:52:38.716Z,-0.67
2023-01-01T04:55:06.567Z,-0.64
2023-01-01T04:57:33.966Z,-0.60
2023-01-01T05:00:01.558Z,-0.59
2023-01-01T05:02:29.055Z,-0.59
2023-01-01T05:04:58.053Z,-0.56
2023-01-01T05:07:25.785Z,-0.66
2023-01-01T05:09:53.099Z,-0.55
2023-01-01T05:12:20.536Z,-0.71
2023-01-01T05:14:48.181Z,-0.69
2023-01-01T05:17:15.506Z,-0.71
2023-01-01T05:19:43.160Z,-0.57
2023-01-01T05:22:11.364Z,-0.68
2023-01-01T05:24:38.904Z,-0.68
2023-01-01T05:27:06.104Z,-0.66
2023-01-01T05:29:33.617Z,-0.59
2023-01-01T05:32:01.035Z,-0.77
2023-01-01T05:36:56.445Z,-0.63
2023-01-01T05:39:23.782Z,-0.74
2023-01-01T05:41:52.111Z,-0.86
2023-01-01T05:44:20.949Z,-0.78
2023-01-01T05:46:48.293Z,-0.94
2023-01-01T05:49:15.715Z,-0.92
2023-01-01T05:51:43.257Z,-0.96
2023-01-01T05:56:37.253Z,-0.73
2023-01-01T05:59:05.066Z,-0.85
2023-01-01T06:01:32.946Z,-0.87
2023-01-01T06:04:01.018Z,-0.76
2023-01-01T06:06:30.901Z,-0.88
2023-01-01T06:09:00.735Z,-0.78
2023-01-01T06:11:29.619Z,-0.66
2023-01-01T06:13:58.946Z,-0.68
2023-01-01T06:16:26.779Z,-0.58
2023-01-01T06:18:54.884Z,-0.66
2023-01-01T06:21:24.791Z,-0.92
2023-01-01T06:23:52.783Z,-0.73
2023-01-01T06:26:26.849Z,-0.65
2023-01-01T06:28:55.841Z,-0.57
2023-01-01T06:31:24.122Z,-0.59
2023-01-01T06:33:51.831Z,-0.55
2023-01-01T06:36:21.463Z,-0.58
2023-01-01T06:38:52.663Z,-0.42
2023-01-01T06:41:22.609Z,-0.28
2023-01-01T06:43:50.803Z,-0.21
2023-01-01T06:46:19.325Z,-0.23
2023-01-01T06:48:49.203Z,0.36
2023-01-01T06:51:19.934Z,0.55
2023-01-01T06:53:48.509Z,0.59
2023-01-01T06:56:16.100Z,0.79
2023-01-01T06:58:44.044Z,0.83
2023-01-01T07:01:14.245Z,1.11
2023-01-01T07:03:42.502Z,1.39
2023-01-01T07:06:11.195Z,0.79
2023-01-01T07:08:38.661Z,1.09
2023-01-01T07:11:06.098Z,1.35
2023-01-01T07:13:33.807Z,1.42
2023-01-01T07:16:05.369Z,1.58
2023-01-01T07:18:36.440Z,1.70
2023-01-01T07:21:06.023Z,1.09
2023-01-01T07:23:35.189Z,1.34
2023-01-01T07:26:05.446Z,1.85
2023-01-01T07:28:32.994Z,1.95
2023-01-01T07:31:00.492Z,2.13
2023-01-01T07:33:28.189Z,2.19
2023-01-01T07:35:55.479Z,2.35
2023-01-01T07:38:22.868Z,2.34
2023-01-01T07:40:50.652Z,2.50
2023-01-01T07:43:17.943Z,2.89
2023-01-01T07:45:45.434Z,2.86
2023-01-01T07:48:15.696Z,3.11
2023-01-01T07:50:44.372Z,3.04
2023-01-01T07:53:12.760Z,3.42
2023-01-01T07:55:40.292Z,3.46
2023-01-01T07:58:07.658Z,3.63
2023-01-01T08:00:35.442Z,3.74
2023-01-01T08:03:03.763Z,3.84
2023-01-01T08:05:31.115Z,3.86
2023-01-01T08:07:58.497Z,3.84
2023-01-01T08:10:26.106Z,3.71
2023-01-01T08:12:59.585Z,3.35
2023-01-01T08:15:28.000Z,3.62
2023-01-01T08:18:00.025Z,3.88
2023-01-01T08:20:29.472Z,3.76
2023-01-01T08:23:01.416Z,3.62
2023-01-01T08:25:32.410Z,3.37
2023-01-01T08:27:59.829Z,3.51
2023-01-01T08:30:27.392Z,3.75
2023-01-01T08:32:55.190Z,3.96
2023-01-01T08:35:22.539Z,4.42
2023-01-01T08:37:49.750Z,4.66
2023-01-01T08:40:17.482Z,4.87
2023-01-01T08:42:44.724Z,5.07
2023-01-01T08:45:12.047Z,5.28
2023-01-01T08:47:39.776Z,5.45
2023-01-01T08:50:07.688Z,5.85
2023-01-01T08:52:34.916Z,6.40
2023-01-01T08:55:02.543Z,6.69
2023-01-01T08:57:33.031Z,6.99
2023-01-01T09:00:00.455Z,7.08
2023-01-01T09:02:28.200Z,7.23
2023-01-01T09:04:55.694Z,7.66
2023-01-01T09:07:22.994Z,8.04
2023-01-01T09:09:50.819Z,8.35
2023-01-01T09:12:18.194Z,8.28
2023-01-01T09:14:48.119Z,8.50
2023-01-01T09:17:15.810Z,8.37
2023-01-01T09:19:43.151Z,8.47
2023-01-01T09:22:11.301Z,7.80
2023-01-01T09:24:39.368Z,8.39
2023-01-01T09:27:06.791Z,8.49
2023-01-01T09:29:34.193Z,9.14
2023-01-01T09:32:01.927Z,8.93
2023-01-01T09:34:29.391Z,9.09
2023-01-01T09:36:56.711Z,8.92
2023-01-01T09:39:24.348Z,9.25
2023-01-01T09:42:23.973Z,9.56
2023-01-01T09:44:54.543Z,9.40
2023-01-01T09:47:28.163Z,9.13
2023-01-01T09:50:01.121Z,9.50
2023-01-01T09:52:40.902Z,9.94
2023-01-01T09:55:22.678Z,10.13
2023-01-01T09:57:50.222Z,10.70
2023-01-01T10:00:19.981Z,10.85
2023-01-01T10:03:07.743Z,11.05
2023-01-01T10:06:01.150Z,11.12
2023-01-01T10:08:41.429Z,11.44
2023-01-01T10:11:46.035Z,11.88
2023-01-01T10:14:49.118Z,12.04
2023-01-01T10:17:21.477Z,11.91
2023-01-01T10:20:04.524Z,12.13
2023-01-01T10:22:42.741Z,12.22
2023-01-01T10:25:24.978Z,12.07
2023-01-01T10:28:13.892Z,12.35
2023-01-01T10:30:43.175Z,11.83
2023-01-01T10:33:15.030Z,12.38
2023-01-01T10:35:49.204Z,12.93
2023-01-01T10:38:24.982Z,13.68
2023-01-01T10:41:01.235Z,13.59
2023-01-01T10:43:29.797Z,14.33
2023-01-01T10:46:00.401Z,14.81
2023-01-01T10:48:32.664Z,14.97
2023-01-01T10:51:14.247Z,14.57
2023-01-01T10:53:44.273Z,14.33
2023-01-01T10:56:20.575Z,14.06
2023-01-01T10:58:49.328Z,14.35
2023-01-01T11:01:21.730Z,14.17
2023-01-01T11:04:02.485Z,14.60
2023-01-01T11:06:38.881Z,15.17
2023-01-01T11:09:21.285Z,15.86
2023-01-01T11:12:07.909Z,16.36
2023-01-01T11:14:53.993Z,16.73
2023-01-01T11:17:30.060Z,16.65
2023-01-01T11:20:02.126Z,17.03
2023-01-01T11:22:46.916Z,17.00
2023-01-01T11:25:17.792Z,16.59
2023-01-01T11:27:45.398Z,16.64
2023-01-01T11:30:25.412Z,16.81
2023-01-01T11:33:04.364Z,17.34
2023-01-01T11:35:48.753Z,17.55
2023-01-01T11:38:29.812Z,17.81
2023-01-01T11:41:05.618Z,18.07
2023-01-01T11:43:47.264Z,18.74
2023-01-01T11:46:23.946Z,18.59
2023-01-01T11:48:54.844Z,18.18
2023-01-01T11:51:33.621Z,18.23
2023-01-01T11:54:32.914Z,18.35
2023-01-01T11:57:18.389Z,18.31
2023-01-01T12:00:09.531Z,18.88
2023-01-01T12:03:01.895Z,19.47
2023-01-01T12:05:48.821Z,20.40
2023-01-01T12:08:23.571Z,20.68
2023-01-01T12:11:17.185Z,20.96
2023-01-01T12:13:51.314Z,20.71
2023-01-01T12:16:27.565Z,20.13
2023-01-01T12:19:02.335Z,19.44
2023-01-01T12:21:32.881Z,19.54
2023-01-01T12:24:00.220Z,19.92
2023-01-01T12:26:42.049Z,20.30
2023-01-01T12:29:34.335Z,20.79
2023-01-01T12:32:07.289Z,20.74
2023-01-01T12:35:04.175Z,20.40
2023-01-01T12:37:46.394Z,20.91
2023-01-01T12:40:26.191Z,20.83
2023-01-01T12:43:10.273Z,21.48
2023-01-01T12:46:24.496Z,21.95
2023-01-01T12:48:57.566Z,22.48
2023-01-01T12:51:43.460Z,23.22
2023-01-01T12:54:43.000Z,23.21
2023-01-01T12:57:44.252Z,23.28
2023-01-01T13:00:17.325Z,23.85
2023-01-01T13:02:55.801Z,24.54
2023-01-01T13:05:34.586Z,25.20
2023-01-01T13:08:04.698Z,25.56
2023-01-01T13:10:39.154Z,26.27
2023-01-01T13:13:07.624Z,25.89
2023-01-01T13:15:37.917Z,26.18
2023-01-01T13:18:20.237Z,26.83
2023-01-01T13:21:02.849Z,26.54
2023-01-01T13:23:30.173Z,27.33
2023-01-01T13:26:23.208Z,27.74
2023-01-01T13:28:59.846Z,27.47
2023-01-01T13:31:40.266Z,27.21
2023-01-01T13:34:35.571Z,26.49
2023-01-01T13:37:15.370Z,24.31
2023-01-01T13:40:24.481Z,22.11
2023-01-01T13:43:04.099Z,20.68
2023-01-01T13:49:01.134Z,17.66
2023-01-01T13:52:09.547Z,16.98
2023-01-01T13:54:41.698Z,16.34
2023-01-01T13:57:36.228Z,15.77
2023-01-01T14:00:21.512Z,15.46
2023-01-01T14:02:59.371Z,15.04
2023-01-01T14:05:33.808Z,14.71
2023-01-01T14:08:01.606Z,14.40
2023-01-01T14:10:35.225Z,14.33
2023-01-01T14:13:05.815Z,14.28
2023-01-01T14:15:36.955Z,14.04
2023-01-01T14:18:11.246Z,13.87
2023-01-01T14:20:48.117Z,13.54
2023-01-01T14:23:33.747Z,13.43
2023-01-01T14:26:03.911Z,13.32
2023-01-01T14:28:34.253Z,13.11
2023-01-01T14:31:10.713Z,13.17
2023-01-01T14:33:39.713Z,12.99
2023-01-01T14:36:15.094Z,13.03
2023-01-01T14:38:46.207Z,12.85
2023-01-01T14:41:32.068Z,12.78
2023-01-01T14:44:19.084Z,12.73
2023-01-01T14:46:51.972Z,12.59
2023-01-01T14:49:30.157Z,12.54
2023-01-01T14:52:02.155Z,12.37
2023-01-01T14:54:33.513Z,12.20
2023-01-01T14:57:01.286Z,11.99
2023-01-01T14:59:33.599Z,11.86
2023-01-01T15:02:15.082Z,11.64
2023-01-01T15:04:42.597Z,11.62
2023-01-01T15:07:27.658Z,11.62
2023-01-01T15:09:57.452Z,11.17
2023-01-01T15:12:25.183Z,11.18
2023-01-01T15:14:55.008Z,11.12
2023-01-01T15:17:25.630Z,10.85
2023-01-01T15:20:04.879Z,10.73
2023-01-01T15:22:39.192Z,10.60
2023-01-01T15:25:13.842Z,10.57
2023-01-01T15:27:41.305Z,10.49
2023-01-01T15:30:22.588Z,10.38
2023-01-01T15:32:50.019Z,10.19
2023-01-01T15:35:47.626Z,9.86
2023-01-01T15:38:26.441Z,9.86
2023-01-01T15:40:54.137Z,9.79
2023-01-01T15:43:27.176Z,9.74
2023-01-01T15:46:00.504Z,9.57
2023-01-01T15:48:37.750Z,9.47
2023-01-01T15:51:16.154Z,9.29
2023-01-01T15:53:50.762Z,9.31
2023-01-01T15:56:20.698Z,9.14
2023-01-01T15:58:56.536Z,9.07
2023-01-01T16:01:28.312Z,8.85
2023-01-01T16:04:14.077Z,8.82
2023-01-01T16:06:46.699Z,8.78
2023-01-01T16:09:16.400Z,8.73
2023-01-01T16:11:44.571Z,8.51
2023-01-01T16:14:12.384Z,8.64
2023-01-01T16:16:43.919Z,8.58
2023-01-01T16:19:16.974Z,8.51
2023-01-01T16:21:44.841Z,8.43
2023-01-01T16:24:17.443Z,8.34
2023-01-01T16:26:45.978Z,8.38
2023-01-01T16:29:14.026Z,8.01
2023-01-01T16:31:42.582Z,8.04
2023-01-01T16:34:13.472Z,8.04
2023-01-01T16:36:41.300Z,7.88
2023-01-01T16:39:08.739Z,7.85
2023-01-01T16:41:39.882Z,7.90
2023-01-01T16:44:07.270Z,7.44
2023-01-01T16:46:34.845Z,7.41
2023-01-01T16:49:04.998Z,7.54
2023-01-01T16:51:34.735Z,7.39
2023-01-01T16:54:03.340Z,7.00
2023-01-01T16:56:31.240Z,7.28
2023-01-01T16:59:03.140Z,7.40
2023-01-01T17:01:32.263Z,7.33
2023-01-01T17:04:00.853Z,7.37
2023-01-01T17:06:28.182Z,7.23
2023-01-01T17:08:55.897Z,7.11
2023-01-01T17:11:25.152Z,7.02
2023-01-01T17:13:52.941Z,7.13
2023-01-01T17:16:27.055Z,7.00
2023-01-01T17:21:47.171Z,6.70
2023-01-01T17:24:19.410Z,6.66
2023-01-01T17:26:52.989Z,6.52
2023-01-01T17:29:22.527Z,6.45
2023-01-01T17:31:51.617Z,6.32
2023-01-01T17:34:21.829Z,6.25
2023-01-01T17:36:50.711Z,6.18
2023-01-01T17:39:18.521Z,6.07
2023-01-01T17:41:46.674Z,5.99
2023-01-01T17:44:15.016Z,6.11
2023-01-01T17:46:44.587Z,6.03
2023-01-01T17:49:12.164Z,6.03
2023-01-01T17:51:40.125Z,5.98
2023-01-01T17:54:10.810Z,5.89
2023-01-01T17:56:38.275Z,5.80
2023-01-01T17:59:06.539Z,5.62
2023-01-01T18:01:36.339Z,5.48
2023-01-01T18:04:07.906Z,5.35
2023-01-01T18:06:41.440Z,5.40
2023-01-01T18:09:12.279Z,5.46
2023-01-01T18:11:40.511Z,5.45
2023-01-01T18:14:07.962Z,5.59
2023-01-01T18:16:37.395Z,5.58
2023-01-01T18:19:05.531Z,5.46
2023-01-01T18:21:34.270Z,5.43
2023-01-01T18:24:02.423Z,5.36
2023-01-01T18:26:31.807Z,5.10
2023-01-01T18:29:02.570Z,5.24
2023-01-01T18:31:32.868Z,5.32
2023-01-01T18:34:03.504Z,5.02
2023-01-01T18:36:34.107Z,4.94
2023-01-01T18:39:03.058Z,5.00
2023-01-01T18:41:45.871Z,5.05
2023-01-01T18:44:22.192Z,5.00
2023-01-01T18:47:01.016Z,4.74
2023-01-01T18:49:28.455Z,4.57
2023-01-01T18:52:02.891Z,4.47
2023-01-01T18:54:30.326Z,4.40
2023-01-01T18:57:16.763Z,4.57
2023-01-01T18:59:44.050Z,4.72
2023-01-01T19:02:27.758Z,4.62
2023-01-01T19:05:16.998Z,4.66
2023-01-01T19:08:07.129Z,4.39
2023-01-01T19:10:39.165Z,4.39
2023-01-01T19:13:31.619Z,4.42
2023-01-01T19:16:11.576Z,4.43
2023-01-01T19:18:43.690Z,4.28
2023-01-01T19:21:11.004Z,4.47
2023-01-01T19:23:45.171Z,4.23
2023-01-01T19:26:19.581Z,4.30
2023-01-01T19:28:51.670Z,4.17
2023-01-01T19:31:19.375Z,4.28
2023-01-01T19:33:47.279Z,4.23
2023-01-01T19:36:14.752Z,4.16
2023-01-01T19:38:42.759Z,4.17
2023-01-01T19:41:11.207Z,4.04
2023-01-01T19:43:38.794Z,4.08
2023-01-01T19:46:06.187Z,4.06
2023-01-01T19:48:33.919Z,3.86
2023-01-01T19:51:01.371Z,3.68
2023-01-01T19:53:28.957Z,3.61
2023-01-01T19:55:56.852Z,3.66
2023-01-01T19:58:24.536Z,3.59
2023-01-01T20:00:53.077Z,3.58
2023-01-01T20:06:10.154Z,3.52
2023-01-01T20:08:38.951Z,3.60
2023-01-01T20:11:07.235Z,3.39
2023-01-01T20:13:34.751Z,3.57
2023-01-01T20:16:03.270Z,3.58
2023-01-01T20:18:30.836Z,3.64
2023-01-01T20:21:20.516Z,3.72
2023-01-01T20:23:53.211Z,3.66
2023-01-01T20:26:21.115Z,3.68
2023-01-01T20:29:06.890Z,3.32
2023-01-01T20:31:34.784Z,3.37
2023-01-01T20:34:02.421Z,3.44
2023-01-01T20:36:48.476Z,3.38
2023-01-01T20:39:16.212Z,3.58
2023-01-01T20:41:43.567Z,3.28
2023-01-01T20:44:11.024Z,3.31
2023-01-01T20:46:38.721Z,3.49
2023-01-01T20:49:06.137Z,3.26
2023-01-01T20:51:33.932Z,2.88
2023-01-01T20:54:01.653Z,2.99
2023-01-01T20:56:30.439Z,3.00
2023-01-01T20:59:04.428Z,3.29
2023-01-01T21:01:40.459Z,3.16
2023-01-01T21:04:08.214Z,2.89
2023-01-01T21:06:35.756Z,2.77
2023-01-01T21:09:06.753Z,2.90
2023-01-01T21:11:35.243Z,2.80
2023-01-01T21:14:03.048Z,2.76
2023-01-01T21:16:36.948Z,2.91
2023-01-01T21:19:08.595Z,3.07
2023-01-01T21:21:41.757Z,2.86
2023-01-01T21:24:21.378Z,2.92
2023-01-01T21:26:48.871Z,2.55
2023-01-01T21:29:20.523Z,2.55
2023-01-01T21:31:53.502Z,2.62
2023-01-01T21:34:28.009Z,2.54
2023-01-01T21:37:01.999Z,2.50
2023-01-01T21:39:31.344Z,2.53
2023-01-01T21:42:25.138Z,2.73
2023-01-01T21:44:57.599Z,2.58
2023-01-01T21:47:25.991Z,2.69
2023-01-01T21:49:56.767Z,2.66
2023-01-01T21:52:26.013Z,2.76
2023-01-01T21:54:53.683Z,2.54
2023-01-01T21:57:25.285Z,2.53
2023-01-01T21:59:54.419Z,2.61
2023-01-01T22:02:37.569Z,2.73
2023-01-01T22:05:30.087Z,2.42
2023-01-01T22:07:59.450Z,2.27
2023-01-01T22:10:34.689Z,2.24
2023-01-01T22:13:02.272Z,2.20
2023-01-01T22:15:39.782Z,2.17
2023-01-01T22:18:10.205Z,2.18
2023-01-01T22:20:39.865Z,2.05
2023-01-01T22:23:23.774Z,2.03
2023-01-01T22:25:53.134Z,2.08
2023-01-01T22:28:27.465Z,2.01
2023-01-01T22:31:00.957Z,1.89
2023-01-01T22:33:47.967Z,2.00
2023-01-01T22:36:30.661Z,1.90
2023-01-01T22:39:02.114Z,1.61
2023-01-01T22:41:29.825Z,1.79
2023-01-01T22:44:03.863Z,1.77
2023-01-01T22:46:39.393Z,1.78
2023-01-01T22:49:23.248Z,1.90
2023-01-01T22:51:54.883Z,1.81
2023-01-01T22:54:22.316Z,1.91
2023-01-01T22:56:50.247Z,1.91
2023-01-01T22:59:18.051Z,1.91
2023-01-01T23:01:45.405Z,1.79
2023-01-01T23:04:12.971Z,1.84
2023-01-01T23:06:40.801Z,1.75
2023-01-01T23:09:08.646Z,1.73
2023-01-01T23:11:36.060Z,1.93
2023-01-01T23:14:22.261Z,1.89
2023-01-01T23:16:49.948Z,1.78
2023-01-01T23:19:17.744Z,1.71
2023-01-01T23:21:45.779Z,1.79
2023-01-01T23:24:20.209Z,1.80
2023-01-01T23:26:48.643Z,1.95
2023-01-01T23:29:17.439Z,2.12
2023-01-01T23:31:45.687Z,1.93
2023-01-01T23:34:13.783Z,1.92
2023-01-01T23:36:43.404Z,1.91
2023-01-01T23:39:11.025Z,1.79
2023-01-01T23:41:38.741Z,1.75
2023-01-01T23:44:06.175Z,1.71
2023-01-01T23:46:38.585Z,1.67
2023-01-01T23:49:07.079Z,1.70
2023-01-01T23:51:35.371Z,1.65
2023-01-01T23:54:02.672Z,1.53
2023-01-01T23:56:31.446Z,1.61
2023-01-01T23:58:58.683Z,1.58
